createdAt,value
2023-04-09T00:02:53.953Z,73.87
2023-04-09T00:05:58.074Z,74.11
2023-04-09T00:09:02.027Z,73.89
2023-04-09T00:12:06.092Z,73.90
2023-04-09T00:15:15.037Z,73.84
2023-04-09T00:18:25.369Z,73.76
2023-04-09T00:21:29.403Z,73.88
2023-04-09T00:24:33.422Z,73.78
2023-04-09T00:27:37.718Z,73.81
2023-04-09T00:30:41.643Z,73.92
2023-04-09T00:33:45.569Z,73.84
2023-04-09T00:36:49.477Z,73.64
2023-04-09T00:39:53.726Z,73.76
2023-04-09T00:42:57.718Z,73.73
2023-04-09T00:46:04.553Z,73.80
2023-04-09T00:49:09.552Z,73.88
2023-04-09T00:52:13.661Z,73.84
2023-04-09T00:55:18.806Z,73.91
2023-04-09T00:58:22.907Z,73.96
2023-04-09T01:01:26.969Z,73.95
2023-04-09T01:04:31.252Z,74.16
2023-04-09T01:07:39.504Z,74.11
2023-04-09T01:11:09.301Z,74.17
2023-04-09T01:14:52.292Z,74.19
2023-04-09T01:18:02.348Z,74.22
2023-04-09T01:21:12.123Z,74.38
2023-04-09T01:24:42.861Z,74.23
2023-04-09T01:28:15.038Z,74.54
2023-04-09T01:31:21.476Z,74.74
2023-04-09T01:34:27.165Z,74.97
2023-04-09T01:37:32.718Z,74.90
2023-04-09T01:40:37.522Z,75.25
2023-04-09T01:43:42.437Z,75.25
2023-04-09T01:46:51.652Z,75.02
2023-04-09T01:49:55.748Z,75.12
2023-04-09T01:53:01.629Z,74.98
2023-04-09T01:56:06.015Z,75.23
2023-04-09T01:59:10.757Z,75.16
2023-04-09T02:02:24.308Z,75.39
2023-04-09T02:05:36.403Z,75.29
2023-04-09T02:08:46.472Z,75.39
2023-04-09T02:11:51.297Z,75.43
2023-04-09T02:14:56.227Z,75.26
2023-04-09T02:18:00.325Z,75.28
2023-04-09T02:21:06.000Z,75.31
2023-04-09T02:24:10.191Z,75.26
2023-04-09T02:27:14.338Z,75.32
2023-04-09T02:30:18.507Z,75.47
2023-04-09T02:33:22.692Z,75.43
2023-04-09T02:36:28.327Z,75.22
2023-04-09T02:39:32.563Z,75.50
2023-04-09T02:42:36.588Z,75.46
2023-04-09T02:45:40.601Z,75.48
2023-04-09T02:48:44.563Z,75.44
2023-04-09T02:51:48.465Z,75.22
2023-04-09T02:54:52.847Z,75.29
2023-04-09T02:57:56.862Z,75.32
2023-04-09T03:01:00.793Z,75.36
2023-04-09T03:04:05.031Z,75.34
2023-04-09T03:07:09.320Z,75.39
2023-04-09T03:10:13.544Z,75.30
2023-04-09T03:13:17.660Z,75.44
2023-04-09T03:16:21.836Z,75.20
2023-04-09T03:19:25.996Z,75.27
2023-04-09T03:22:30.116Z,75.52
2023-04-09T03:25:34.244Z,75.54
2023-04-09T03:28:41.526Z,75.60
2023-04-09T03:31:45.795Z,75.62
2023-04-09T03:34:50.482Z,75.67
2023-04-09T03:37:57.167Z,75.60
2023-04-09T03:41:01.281Z,75.63
2023-04-09T03:44:05.905Z,75.48
2023-04-09T03:47:15.663Z,75.53
2023-04-09T03:50:20.717Z,75.65
2023-04-09T03:53:28.090Z,75.34
2023-04-09T03:56:37.223Z,75.47
2023-04-09T03:59:46.073Z,75.49
2023-04-09T04:02:52.446Z,75.53
2023-04-09T04:06:07.031Z,75.70
2023-04-09T04:09:30.564Z,75.66
2023-04-09T04:12:38.880Z,75.43
2023-04-09T04:15:48.015Z,75.67
2023-04-09T04:18:53.249Z,75.82
2023-04-09T04:21:58.089Z,75.85
2023-04-09T04:25:03.642Z,76.01
2023-04-09T04:28:07.760Z,76.14
2023-04-09T04:31:16.104Z,76.19
2023-04-09T04:34:21.322Z,75.93
2023-04-09T04:37:31.236Z,75.87
2023-04-09T04:40:37.042Z,75.98
2023-04-09T04:43:41.609Z,75.91
2023-04-09T04:46:47.622Z,75.77
2023-04-09T04:49:52.486Z,75.85
2023-04-09T04:52:57.909Z,75.84
2023-04-09T04:56:05.464Z,75.76
2023-04-09T04:59:09.735Z,75.72
2023-04-09T05:02:32.453Z,75.94
2023-04-09T05:05:55.236Z,75.93
2023-04-09T05:09:01.717Z,76.20
2023-04-09T05:12:13.744Z,76.17
2023-04-09T05:15:18.143Z,76.20
2023-04-09T05:18:23.189Z,76.31
2023-04-09T05:21:31.912Z,76.40
2023-04-09T05:24:37.870Z,76.39
2023-04-09T05:27:42.853Z,76.48
2023-04-09T05:30:47.923Z,76.30
2023-04-09T05:33:53.093Z,76.30
2023-04-09T05:37:01.107Z,76.24
2023-04-09T05:40:05.761Z,76.20
2023-04-09T05:43:10.345Z,76.05
2023-04-09T05:46:17.459Z,76.09
2023-04-09T05:49:21.883Z,76.14
2023-04-09T05:52:27.837Z,75.99
2023-04-09T05:55:33.014Z,75.90
2023-04-09T05:58:38.430Z,75.75
2023-04-09T06:01:42.577Z,75.52
2023-04-09T06:04:46.802Z,75.47
2023-04-09T06:07:51.813Z,75.53
2023-04-09T06:10:55.924Z,75.27
2023-04-09T06:14:00.433Z,75.43
2023-04-09T06:17:04.468Z,75.47
2023-04-09T06:20:09.411Z,75.51
2023-04-09T06:23:13.528Z,75.43
2023-04-09T06:26:17.822Z,75.18
2023-04-09T06:29:24.295Z,75.09
2023-04-09T06:32:28.492Z,74.70
2023-04-09T06:35:32.828Z,74.53
2023-04-09T06:38:36.851Z,74.56
2023-04-09T06:41:40.810Z,74.24
2023-04-09T06:44:58.753Z,74.13
2023-04-09T06:48:02.794Z,73.64
2023-04-09T06:51:07.478Z,73.34
2023-04-09T06:54:11.313Z,73.11
2023-04-09T06:57:15.307Z,72.50
2023-04-09T07:00:19.575Z,72.60
2023-04-09T07:03:23.794Z,71.88
2023-04-09T07:06:27.931Z,71.77
2023-04-09T07:09:31.966Z,71.90
2023-04-09T07:12:36.090Z,71.74
2023-04-09T07:15:40.622Z,71.19
2023-04-09T07:18:47.057Z,70.86
2023-04-09T07:21:51.086Z,70.59
2023-04-09T07:24:55.264Z,69.74
2023-04-09T07:27:59.285Z,69.79
2023-04-09T07:31:03.868Z,68.92
2023-04-09T07:34:07.986Z,68.90
2023-04-09T07:37:12.621Z,68.55
2023-04-09T07:40:16.757Z,68.18
2023-04-09T07:43:22.500Z,67.09
2023-04-09T07:46:26.643Z,66.69
2023-04-09T07:49:30.752Z,65.87
2023-04-09T07:52:34.674Z,64.89
2023-04-09T07:55:38.628Z,64.83
2023-04-09T07:58:42.687Z,65.26
2023-04-09T08:01:46.717Z,65.10
2023-04-09T08:04:51.449Z,65.09
2023-04-09T08:07:55.558Z,65.14
2023-04-09T08:10:59.568Z,64.87
2023-04-09T08:14:04.813Z,64.24
2023-04-09T08:17:08.715Z,63.06
2023-04-09T08:20:12.962Z,63.77
2023-04-09T08:23:16.972Z,63.73
2023-04-09T08:26:20.901Z,63.59
2023-04-09T08:29:24.817Z,61.95
2023-04-09T08:32:28.800Z,62.67
2023-04-09T08:35:32.916Z,62.80
2023-04-09T08:38:37.246Z,62.59
2023-04-09T08:41:46.273Z,62.52
2023-04-09T08:44:50.379Z,62.12
2023-04-09T08:47:54.394Z,62.33
2023-04-09T08:50:58.509Z,62.09
2023-04-09T08:54:04.698Z,61.67
2023-04-09T08:57:09.442Z,61.61
2023-04-09T09:00:14.072Z,60.92
2023-04-09T09:03:18.404Z,60.83
2023-04-09T09:06:24.018Z,60.54
2023-04-09T09:09:28.050Z,60.52
2023-04-09T09:12:32.741Z,60.51
2023-04-09T09:15:36.692Z,59.96
2023-04-09T09:18:44.815Z,59.32
2023-04-09T09:22:05.120Z,59.24
2023-04-09T09:25:13.155Z,60.07
2023-04-09T09:28:17.232Z,60.15
2023-04-09T09:31:23.009Z,59.87
2023-04-09T09:34:27.119Z,59.48
2023-04-09T09:37:31.556Z,59.51
2023-04-09T09:40:35.756Z,59.07
2023-04-09T09:43:42.714Z,58.79
2023-04-09T09:46:46.714Z,58.70
2023-04-09T09:49:51.676Z,57.98
2023-04-09T09:53:03.805Z,56.83
2023-04-09T09:56:19.352Z,57.35
2023-04-09T09:59:30.726Z,57.33
2023-04-09T10:02:45.101Z,56.95
2023-04-09T10:05:50.145Z,57.04
2023-04-09T10:08:58.306Z,56.88
2023-04-09T10:12:05.102Z,56.36
2023-04-09T10:15:10.150Z,56.17
2023-04-09T10:18:16.166Z,56.45
2023-04-09T10:21:26.840Z,55.61
2023-04-09T10:24:33.665Z,55.50
2023-04-09T10:27:37.636Z,55.79
2023-04-09T10:30:41.625Z,55.35
2023-04-09T10:33:46.027Z,54.62
2023-04-09T10:36:57.262Z,54.59
2023-04-09T10:40:03.989Z,54.00
2023-04-09T10:43:10.498Z,53.86
2023-04-09T10:46:34.107Z,54.09
2023-04-09T10:49:42.220Z,54.46
2023-04-09T10:52:46.938Z,54.52
2023-04-09T10:55:53.127Z,54.55
2023-04-09T10:58:57.115Z,53.41
2023-04-09T11:02:01.137Z,52.95
2023-04-09T11:05:17.576Z,52.87
2023-04-09T11:08:22.450Z,52.37
2023-04-09T11:11:27.619Z,52.13
2023-04-09T11:14:31.839Z,52.09
2023-04-09T11:17:37.077Z,50.71
2023-04-09T11:20:41.345Z,51.59
2023-04-09T11:23:51.951Z,51.67
2023-04-09T11:26:56.820Z,51.34
2023-04-09T11:30:00.825Z,51.65
2023-04-09T11:33:04.866Z,51.63
2023-04-09T11:36:09.168Z,51.99
2023-04-09T11:39:13.379Z,51.68
2023-04-09T11:42:17.765Z,51.95
2023-04-09T11:45:28.029Z,51.64
2023-04-09T11:48:32.175Z,51.82
2023-04-09T11:51:36.892Z,51.65
2023-04-09T11:54:40.832Z,51.47
2023-04-09T11:57:46.986Z,51.67
2023-04-09T12:00:55.343Z,51.82
2023-04-09T12:04:00.851Z,52.37
2023-04-09T12:07:09.817Z,53.07
2023-04-09T12:10:14.036Z,53.19
2023-04-09T12:13:17.993Z,53.49
2023-04-09T12:16:22.087Z,54.26
2023-04-09T12:19:26.480Z,54.49
2023-04-09T12:22:30.493Z,54.67
2023-04-09T12:25:36.966Z,54.58
2023-04-09T12:28:41.287Z,54.32
2023-04-09T12:31:46.355Z,54.52
2023-04-09T12:34:50.321Z,54.09
2023-04-09T12:37:54.335Z,54.49
2023-04-09T12:40:58.376Z,54.37
2023-04-09T12:44:02.322Z,54.11
2023-04-09T12:47:06.702Z,53.87
2023-04-09T12:50:13.012Z,53.62
2023-04-09T12:53:17.000Z,53.59
2023-04-09T12:56:21.017Z,52.97
2023-04-09T12:59:24.974Z,52.78
2023-04-09T13:02:29.017Z,52.62
2023-04-09T13:05:35.615Z,52.24
2023-04-09T13:08:39.517Z,51.98
2023-04-09T13:11:43.551Z,51.93
2023-04-09T13:14:48.809Z,52.05
2023-04-09T13:17:52.982Z,51.88
2023-04-09T13:20:57.114Z,51.99
2023-04-09T13:24:01.354Z,52.02
2023-04-09T13:27:07.127Z,51.47
2023-04-09T13:30:11.343Z,51.45
2023-04-09T13:33:15.546Z,51.35
2023-04-09T13:36:19.450Z,51.97
2023-04-09T13:39:23.488Z,51.56
2023-04-09T13:42:27.914Z,50.77
2023-04-09T13:45:31.930Z,51.18
2023-04-09T13:48:35.936Z,50.82
2023-04-09T13:51:40.365Z,50.56
2023-04-09T13:54:44.372Z,50.45
2023-04-09T13:57:48.279Z,50.92
2023-04-09T14:00:52.805Z,50.87
2023-04-09T14:03:57.051Z,50.78
2023-04-09T14:07:01.422Z,50.63
2023-04-09T14:10:06.643Z,50.02
2023-04-09T14:13:12.251Z,49.96
2023-04-09T14:16:16.533Z,50.23
2023-04-09T14:19:20.598Z,49.89
2023-04-09T14:22:25.333Z,49.00
2023-04-09T14:25:29.370Z,48.81
2023-04-09T14:28:33.592Z,48.90
2023-04-09T14:31:37.599Z,48.88
2023-04-09T14:34:41.714Z,48.42
2023-04-09T14:37:47.051Z,48.45
2023-04-09T14:40:51.799Z,48.40
2023-04-09T14:43:55.765Z,48.24
2023-04-09T14:47:00.055Z,48.24
2023-04-09T14:50:04.449Z,48.32
2023-04-09T14:53:08.667Z,48.43
2023-04-09T14:56:12.566Z,48.41
2023-04-09T14:59:16.500Z,48.44
2023-04-09T15:02:20.696Z,49.39
2023-04-09T15:05:24.829Z,50.47
2023-04-09T15:08:28.843Z,51.48
2023-04-09T15:11:32.962Z,52.38
2023-04-09T15:14:37.100Z,52.60
2023-04-09T15:17:41.230Z,52.87
2023-04-09T15:20:45.730Z,53.17
2023-04-09T15:23:53.233Z,53.33
2023-04-09T15:26:57.756Z,53.59
2023-04-09T15:30:02.122Z,53.43
2023-04-09T15:33:06.352Z,53.47
2023-04-09T15:36:10.968Z,53.90
2023-04-09T15:39:15.353Z,54.11
2023-04-09T15:42:22.919Z,54.35
2023-04-09T15:45:27.145Z,54.12
2023-04-09T15:48:31.534Z,54.07
2023-04-09T15:51:35.592Z,54.06
2023-04-09T15:54:39.552Z,54.10
2023-04-09T15:57:46.866Z,54.04
2023-04-09T16:00:51.718Z,54.00
2023-04-09T16:03:55.738Z,54.29
2023-04-09T16:06:59.892Z,54.52
2023-04-09T16:10:04.785Z,54.50
2023-04-09T16:13:08.695Z,54.25
2023-04-09T16:16:12.679Z,54.18
2023-04-09T16:19:17.820Z,54.65
2023-04-09T16:22:21.814Z,54.37
2023-04-09T16:25:25.828Z,54.34
2023-04-09T16:28:29.851Z,54.17
2023-04-09T16:31:34.386Z,53.57
2023-04-09T16:34:38.396Z,53.73
2023-04-09T16:37:42.346Z,53.81
2023-04-09T16:40:46.708Z,54.04
2023-04-09T16:43:51.234Z,54.64
2023-04-09T16:46:56.547Z,54.83
2023-04-09T16:50:01.027Z,54.93
2023-04-09T16:53:05.044Z,55.20
2023-04-09T16:56:09.595Z,55.71
2023-04-09T16:59:13.684Z,55.81
2023-04-09T17:02:21.745Z,55.99
2023-04-09T17:05:26.017Z,56.22
2023-04-09T17:08:30.134Z,56.43
2023-04-09T17:11:34.518Z,56.69
2023-04-09T17:14:38.980Z,57.01
2023-04-09T17:17:45.253Z,57.21
2023-04-09T17:20:49.592Z,57.35
2023-04-09T17:23:53.694Z,57.58
2023-04-09T17:26:57.627Z,58.01
2023-04-09T17:30:02.648Z,58.09
2023-04-09T17:33:06.662Z,58.33
2023-04-09T17:36:10.927Z,58.41
2023-04-09T17:39:15.000Z,58.53
2023-04-09T17:42:19.741Z,58.53
2023-04-09T17:45:23.854Z,58.57
2023-04-09T17:48:30.101Z,58.80
2023-04-09T17:51:35.774Z,59.12
2023-04-09T17:54:39.666Z,59.42
2023-04-09T17:57:43.677Z,59.64
2023-04-09T18:00:47.724Z,59.94
2023-04-09T18:03:51.837Z,59.99
2023-04-09T18:06:56.672Z,60.18
2023-04-09T18:10:01.768Z,60.26
2023-04-09T18:13:06.242Z,60.65
2023-04-09T18:16:11.051Z,60.92
2023-04-09T18:19:15.594Z,61.32
2023-04-09T18:22:19.640Z,61.44
2023-04-09T18:25:23.935Z,61.30
2023-04-09T18:28:28.190Z,61.66
2023-04-09T18:31:32.510Z,61.88
2023-04-09T18:34:37.423Z,61.85
2023-04-09T18:37:41.436Z,62.27
2023-04-09T18:40:45.466Z,62.17
2023-04-09T18:43:49.502Z,62.19
2023-04-09T18:46:53.514Z,62.19
2023-04-09T18:49:57.804Z,62.75
2023-04-09T18:53:03.702Z,62.79
2023-04-09T18:56:08.082Z,62.98
2023-04-09T18:59:12.315Z,63.02
2023-04-09T19:02:16.412Z,63.26
2023-04-09T19:05:20.653Z,63.78
2023-04-09T19:08:24.608Z,63.74
2023-04-09T19:11:28.594Z,64.25
2023-04-09T19:14:32.605Z,64.20
2023-04-09T19:17:36.635Z,64.21
2023-04-09T19:20:40.943Z,64.43
2023-04-09T19:23:45.808Z,64.79
2023-04-09T19:26:51.028Z,65.04
2023-04-09T19:29:56.272Z,65.38
2023-04-09T19:33:00.352Z,65.24
2023-04-09T19:36:04.742Z,65.80
2023-04-09T19:39:11.097Z,65.70
2023-04-09T19:42:15.039Z,65.87
2023-04-09T19:45:19.003Z,65.66
2023-04-09T19:48:23.703Z,66.13
2023-04-09T19:51:27.649Z,66.18
2023-04-09T19:54:33.058Z,66.16
2023-04-09T19:57:37.121Z,66.29
2023-04-09T20:00:41.319Z,66.33
2023-04-09T20:03:45.801Z,66.42
2023-04-09T20:06:51.710Z,66.71
2023-04-09T20:09:55.625Z,66.99
2023-04-09T20:12:59.505Z,66.82
2023-04-09T20:16:03.899Z,66.79
2023-04-09T20:19:07.826Z,66.74
2023-04-09T20:22:11.799Z,66.85
2023-04-09T20:25:15.847Z,67.07
2023-04-09T20:28:19.751Z,67.07
2023-04-09T20:31:23.767Z,66.85
2023-04-09T20:34:27.964Z,66.83
2023-04-09T20:37:31.895Z,66.50
2023-04-09T20:40:37.671Z,67.01
2023-04-09T20:43:41.756Z,66.65
2023-04-09T20:46:46.080Z,66.56
2023-04-09T20:49:51.317Z,66.52
2023-04-09T20:52:55.834Z,66.64
2023-04-09T20:55:59.848Z,66.61
2023-04-09T20:59:03.855Z,66.86
2023-04-09T21:02:08.883Z,67.01
2023-04-09T21:05:22.856Z,66.93
2023-04-09T21:08:29.376Z,66.96
2023-04-09T21:11:33.347Z,67.06
2023-04-09T21:14:37.381Z,67.27
2023-04-09T21:17:41.383Z,66.88
2023-04-09T21:20:46.379Z,67.18
2023-04-09T21:23:50.444Z,67.21
2023-04-09T21:26:54.387Z,67.40
2023-04-09T21:29:58.950Z,67.48
2023-04-09T21:33:03.397Z,67.39
2023-04-09T21:36:08.141Z,67.70
2023-04-09T21:39:12.804Z,68.10
2023-04-09T21:42:16.852Z,68.36
2023-04-09T21:45:21.711Z,67.99
2023-04-09T21:48:26.570Z,68.49
2023-04-09T21:51:30.585Z,68.65
2023-04-09T21:54:34.704Z,68.83
2023-04-09T21:57:38.596Z,68.83
2023-04-09T22:00:43.162Z,69.28
2023-04-09T22:03:47.030Z,69.39
2023-04-09T22:06:51.077Z,69.43
2023-04-09T22:09:56.833Z,69.58
2023-04-09T22:13:01.270Z,69.66
2023-04-09T22:16:05.487Z,69.93
2023-04-09T22:19:09.533Z,70.27
2023-04-09T22:22:15.250Z,70.17
2023-04-09T22:25:19.387Z,70.22
2023-04-09T22:28:24.207Z,70.54
2023-04-09T22:31:28.301Z,70.76
2023-04-09T22:34:32.436Z,70.88
2023-04-09T22:37:36.471Z,71.19
2023-04-09T22:40:40.563Z,71.08
2023-04-09T22:43:44.702Z,71.20
2023-04-09T22:46:48.769Z,71.57
2023-04-09T22:49:54.900Z,71.62
2023-04-09T22:53:00.417Z,72.00
2023-04-09T22:56:04.643Z,71.95
2023-04-09T22:59:08.665Z,72.04
2023-04-09T23:02:12.887Z,72.09
2023-04-09T23:05:17.899Z,72.24
2023-04-09T23:08:21.831Z,72.24
2023-04-09T23:11:27.380Z,72.52
2023-04-09T23:14:31.333Z,73.06
2023-04-09T23:17:35.419Z,72.99
2023-04-09T23:20:39.428Z,73.44
2023-04-09T23:23:43.436Z,73.60
2023-04-09T23:26:47.659Z,74.05
2023-04-09T23:29:51.881Z,74.22
2023-04-09T23:32:57.511Z,74.20
2023-04-09T23:36:01.852Z,74.42
2023-04-09T23:39:06.286Z,74.36
2023-04-09T23:42:10.503Z,74.45
2023-04-09T23:45:14.825Z,74.73
2023-04-09T23:48:18.806Z,74.91
2023-04-09T23:51:22.861Z,75.50
2023-04-09T23:54:27.181Z,75.85
2023-04-09T23:57:31.204Z,75.55
